createdAt,value
2024-04-14T00:00:24.275Z,24.00
2024-04-14T00:05:25.902Z,24.00
2024-04-14T00:10:27.523Z,24.00
2024-04-14T00:15:29.131Z,24.00
2024-04-14T00:20:30.743Z,24.00
2024-04-14T00:25:32.766Z,24.00
2024-04-14T00:30:34.321Z,24.00
2024-04-14T00:35:35.890Z,23.90
2024-04-14T00:40:37.451Z,23.90
2024-04-14T00:45:39.061Z,23.90
2024-04-14T00:50:40.634Z,23.90
2024-04-14T00:55:42.207Z,23.90
2024-04-14T01:00:43.934Z,23.90
2024-04-14T01:05:45.555Z,23.90
2024-04-14T01:10:47.116Z,23.80
2024-04-14T01:15:48.701Z,23.90
2024-04-14T01:20:50.258Z,23.80
2024-04-14T01:25:51.811Z,23.80
2024-04-14T01:30:53.515Z,23.80
2024-04-14T01:35:55.107Z,23.80
2024-04-14T01:40:56.651Z,23.80
2024-04-14T01:45:58.329Z,23.80
2024-04-14T01:50:59.915Z,23.80
2024-04-14T01:56:01.476Z,23.80
2024-04-14T02:01:03.118Z,23.80
2024-04-14T02:06:04.705Z,23.80
2024-04-14T02:11:06.374Z,23.80
2024-04-14T02:16:07.926Z,23.80
2024-04-14T02:21:09.473Z,23.80
2024-04-14T02:26:11.031Z,23.70
2024-04-14T02:31:12.575Z,23.70
2024-04-14T02:36:14.169Z,23.70
2024-04-14T02:41:15.731Z,23.70
2024-04-14T02:46:17.275Z,23.70
2024-04-14T02:51:18.802Z,23.70
2024-04-14T02:56:20.366Z,23.70
2024-04-14T03:01:22.040Z,23.70
2024-04-14T03:06:23.651Z,23.70
2024-04-14T03:11:25.236Z,23.70
2024-04-14T03:16:26.821Z,23.60
2024-04-14T03:21:28.410Z,23.60
2024-04-14T03:26:29.983Z,23.60
2024-04-14T03:31:31.543Z,23.70
2024-04-14T03:36:33.173Z,23.60
2024-04-14T03:41:34.786Z,23.70
2024-04-14T03:46:36.363Z,23.60
2024-04-14T03:51:37.938Z,23.60
2024-04-14T03:56:39.487Z,23.60
2024-04-14T04:01:41.088Z,23.60
2024-04-14T04:06:42.721Z,23.60
2024-04-14T04:11:44.264Z,23.60
2024-04-14T04:16:47.228Z,23.60
2024-04-14T04:21:48.957Z,23.60
2024-04-14T04:26:50.516Z,23.60
2024-04-14T04:31:52.059Z,23.60
2024-04-14T04:36:53.669Z,23.60
2024-04-14T04:41:55.277Z,23.60
2024-04-14T04:46:56.810Z,23.60
2024-04-14T04:51:58.503Z,23.60
2024-04-14T04:57:00.148Z,23.50
2024-04-14T05:02:01.713Z,23.50
2024-04-14T05:07:03.417Z,23.50
2024-04-14T05:12:05.015Z,23.60
2024-04-14T05:17:06.559Z,23.50
2024-04-14T05:22:08.136Z,23.50
2024-04-14T05:27:09.716Z,23.50
2024-04-14T05:32:11.269Z,23.50
2024-04-14T05:37:12.877Z,23.50
2024-04-14T05:42:14.434Z,23.50
2024-04-14T05:47:15.993Z,23.50
2024-04-14T05:52:17.536Z,23.50
2024-04-14T05:57:19.068Z,23.50
2024-04-14T06:02:20.600Z,23.50
2024-04-14T06:07:22.146Z,23.40
2024-04-14T06:12:23.690Z,23.50
2024-04-14T06:17:25.229Z,23.50
2024-04-14T06:22:26.780Z,23.40
2024-04-14T06:27:28.335Z,23.40
2024-04-14T06:32:30.031Z,23.40
2024-04-14T06:37:31.662Z,23.40
2024-04-14T06:42:33.220Z,23.40
2024-04-14T06:47:35.300Z,23.40
2024-04-14T06:52:37.070Z,23.40
2024-04-14T06:57:38.705Z,23.40
2024-04-14T07:02:40.393Z,23.40
2024-04-14T07:07:42.029Z,23.40
2024-04-14T07:12:43.604Z,23.40
2024-04-14T07:17:45.215Z,23.40
2024-04-14T07:22:46.794Z,23.30
2024-04-14T07:27:48.478Z,23.30
2024-04-14T07:32:50.172Z,23.40
2024-04-14T07:37:51.765Z,23.40
2024-04-14T07:42:53.406Z,23.40
2024-04-14T07:47:55.031Z,23.40
2024-04-14T07:52:56.641Z,23.40
2024-04-14T07:57:58.224Z,23.30
2024-04-14T08:02:59.890Z,23.40
2024-04-14T08:08:01.481Z,23.30
2024-04-14T08:13:03.110Z,23.30
2024-04-14T08:18:04.759Z,23.30
2024-04-14T08:23:06.342Z,23.30
2024-04-14T08:28:09.373Z,23.30
2024-04-14T08:33:12.121Z,23.30
2024-04-14T08:38:13.693Z,23.30
2024-04-14T08:43:15.257Z,23.30
2024-04-14T08:48:16.787Z,23.30
2024-04-14T08:53:18.330Z,23.30
2024-04-14T08:58:19.858Z,23.30
2024-04-14T09:03:21.418Z,23.30
2024-04-14T09:08:22.971Z,23.30
2024-04-14T09:13:24.541Z,23.30
2024-04-14T09:18:26.109Z,23.30
2024-04-14T09:23:27.650Z,23.30
2024-04-14T09:28:29.181Z,23.30
2024-04-14T09:33:30.768Z,23.30
2024-04-14T09:38:32.351Z,23.20
2024-04-14T09:43:33.923Z,23.20
2024-04-14T09:48:35.477Z,23.20
2024-04-14T09:53:37.065Z,23.20
2024-04-14T09:58:38.617Z,23.20
2024-04-14T10:03:40.229Z,23.20
2024-04-14T10:08:41.820Z,23.20
2024-04-14T10:13:43.353Z,23.20
2024-04-14T10:18:44.938Z,23.20
2024-04-14T10:23:46.480Z,23.20
2024-04-14T10:28:48.077Z,23.20
2024-04-14T10:33:49.667Z,23.20
2024-04-14T10:38:51.241Z,23.20
2024-04-14T10:43:52.774Z,23.20
2024-04-14T10:48:54.332Z,23.20
2024-04-14T10:53:55.900Z,23.20
2024-04-14T10:58:57.425Z,23.20
2024-04-14T11:03:59.036Z,23.20
2024-04-14T11:09:00.679Z,23.20
2024-04-14T11:14:02.202Z,23.20
2024-04-14T11:19:03.796Z,23.20
2024-04-14T11:24:05.376Z,23.20
2024-04-14T11:29:06.948Z,23.20
2024-04-14T11:34:12.142Z,23.20
2024-04-14T11:39:14.474Z,23.20
2024-04-14T11:44:16.026Z,23.20
2024-04-14T11:49:17.549Z,23.20
2024-04-14T11:54:19.090Z,23.20
2024-04-14T11:59:20.630Z,23.20
2024-04-14T12:04:22.248Z,23.20
2024-04-14T12:09:23.840Z,23.20
2024-04-14T12:14:25.414Z,23.20
2024-04-14T12:19:26.948Z,23.20
2024-04-14T12:24:28.475Z,23.20
2024-04-14T12:29:30.017Z,23.20
2024-04-14T12:34:31.666Z,23.20
2024-04-14T12:39:33.267Z,23.20
2024-04-14T12:44:34.905Z,23.20
2024-04-14T12:49:36.456Z,23.20
2024-04-14T12:54:38.039Z,23.20
2024-04-14T12:59:39.651Z,23.20
2024-04-14T13:04:41.267Z,23.20
2024-04-14T13:09:42.881Z,23.20
2024-04-14T13:14:44.469Z,23.10
2024-04-14T13:19:46.013Z,23.20
2024-04-14T13:24:47.571Z,23.20
2024-04-14T13:29:49.102Z,23.20
2024-04-14T13:34:50.636Z,23.20
2024-04-14T13:39:52.314Z,23.20
2024-04-14T13:44:53.955Z,23.20
2024-04-14T13:49:55.481Z,23.20
2024-04-14T13:54:57.048Z,23.20
2024-04-14T13:59:58.637Z,23.20
2024-04-14T14:05:00.305Z,23.20
2024-04-14T14:10:01.913Z,23.20
2024-04-14T14:15:03.514Z,23.20
2024-04-14T14:20:05.141Z,23.20
2024-04-14T14:25:06.718Z,23.20
2024-04-14T14:30:08.272Z,23.20
2024-04-14T14:35:09.809Z,23.20
2024-04-14T14:40:11.405Z,23.20
2024-04-14T14:45:13.007Z,23.20
2024-04-14T14:50:14.558Z,23.20
2024-04-14T14:55:16.205Z,23.20
2024-04-14T15:00:17.746Z,23.20
2024-04-14T15:05:19.267Z,23.20
2024-04-14T15:10:20.835Z,23.20
2024-04-14T15:15:22.383Z,23.20
2024-04-14T15:20:23.933Z,23.20
2024-04-14T15:25:25.475Z,23.20
2024-04-14T15:30:27.019Z,23.20
2024-04-14T15:35:28.553Z,23.20
2024-04-14T15:40:30.094Z,23.20
2024-04-14T15:45:31.626Z,23.20
2024-04-14T15:50:34.203Z,23.20
2024-04-14T15:55:35.736Z,23.20
2024-04-14T16:00:37.338Z,23.20
2024-04-14T16:05:38.921Z,23.20
2024-04-14T16:10:40.504Z,23.20
2024-04-14T16:15:42.096Z,23.10
2024-04-14T16:20:43.681Z,23.20
2024-04-14T16:25:45.232Z,23.20
2024-04-14T16:30:46.872Z,23.20
2024-04-14T16:35:48.507Z,23.20
2024-04-14T16:40:50.056Z,23.20
2024-04-14T16:45:51.667Z,23.10
2024-04-14T16:50:53.211Z,23.20
2024-04-14T16:55:54.724Z,23.10
2024-04-14T17:00:56.308Z,23.10
2024-04-14T17:05:57.932Z,23.10
2024-04-14T17:10:59.518Z,23.10
2024-04-14T17:16:01.140Z,23.10
2024-04-14T17:21:02.753Z,23.10
2024-04-14T17:26:04.286Z,23.10
2024-04-14T17:31:05.905Z,23.10
2024-04-14T17:36:07.475Z,23.10
2024-04-14T17:41:09.007Z,23.10
2024-04-14T17:46:10.732Z,23.10
2024-04-14T17:51:12.376Z,23.10
2024-04-14T17:56:14.007Z,23.10
2024-04-14T18:01:15.594Z,23.10
2024-04-14T18:06:17.167Z,23.10
2024-04-14T18:11:18.715Z,23.00
2024-04-14T18:16:20.326Z,23.00
2024-04-14T18:21:21.911Z,23.10
2024-04-14T18:26:23.451Z,23.00
2024-04-14T18:31:25.083Z,23.10
2024-04-14T18:36:26.674Z,23.10
2024-04-14T18:41:28.210Z,23.10
2024-04-14T18:46:29.777Z,23.00
2024-04-14T18:51:31.343Z,23.10
2024-04-14T18:56:32.864Z,23.00
2024-04-14T19:01:34.553Z,23.10
2024-04-14T19:06:36.225Z,23.10
2024-04-14T19:11:37.781Z,23.10
2024-04-14T19:16:39.375Z,23.00
2024-04-14T19:21:40.967Z,23.10
2024-04-14T19:26:42.536Z,23.10
2024-04-14T19:31:44.118Z,23.00
2024-04-14T19:36:45.682Z,23.00
2024-04-14T19:41:47.254Z,23.00
2024-04-14T19:46:48.793Z,23.00
2024-04-14T19:51:50.412Z,23.00
2024-04-14T19:56:51.991Z,23.00
2024-04-14T20:01:53.661Z,23.00
2024-04-14T20:06:55.316Z,23.00
2024-04-14T20:11:56.867Z,23.00
2024-04-14T20:16:58.417Z,23.00
2024-04-14T20:22:00.039Z,23.00
2024-04-14T20:27:01.596Z,23.00
2024-04-14T20:32:03.177Z,23.00
2024-04-14T20:37:04.744Z,23.00
2024-04-14T20:42:06.368Z,23.00
2024-04-14T20:47:07.899Z,23.00
2024-04-14T20:52:09.506Z,23.00
2024-04-14T20:57:11.073Z,23.00
2024-04-14T21:02:12.649Z,23.00
2024-04-14T21:07:14.208Z,23.00
2024-04-14T21:12:15.754Z,23.00
2024-04-14T21:17:17.340Z,23.00
2024-04-14T21:22:18.989Z,23.00
2024-04-14T21:27:20.573Z,22.90
2024-04-14T21:32:22.134Z,22.90
2024-04-14T21:37:23.683Z,22.90
2024-04-14T21:42:25.215Z,22.90
2024-04-14T21:47:26.814Z,22.90
2024-04-14T21:52:28.402Z,22.90
2024-04-14T21:57:29.936Z,22.90
2024-04-14T22:02:31.487Z,22.90
2024-04-14T22:07:33.046Z,22.90
2024-04-14T22:12:34.586Z,22.90
2024-04-14T22:17:36.124Z,22.90
2024-04-14T22:22:37.659Z,22.90
2024-04-14T22:27:39.214Z,22.90
2024-04-14T22:32:40.787Z,22.90
2024-04-14T22:37:42.339Z,22.90
2024-04-14T22:42:43.896Z,22.90
2024-04-14T22:47:45.520Z,22.90
2024-04-14T22:52:47.072Z,22.90
2024-04-14T22:57:48.608Z,22.90
2024-04-14T23:02:50.157Z,22.90
2024-04-14T23:07:51.710Z,22.90
2024-04-14T23:12:53.270Z,22.90
2024-04-14T23:17:54.919Z,22.90
2024-04-14T23:22:56.500Z,22.90
2024-04-14T23:27:58.049Z,22.80
2024-04-14T23:32:59.717Z,22.90
2024-04-14T23:38:01.277Z,22.80
2024-04-14T23:43:02.849Z,22.90
2024-04-14T23:48:04.584Z,22.80
2024-04-14T23:53:06.152Z,22.80
2024-04-14T23:58:07.772Z,22.80
